Time;durP1;ratioP1;P1;durP2;ratioP2;P2;SDS_P1;SDS_P2;PMS_P1;PMS_P2;Temp;Humidity;BMP_temperature;BMP_pressure;BME280_temperature;BME280_humidity;BME280_pressure;Samples;Min_cycle;Max_cycle;Signal;HPM_P1;HPM_P2
2023/08/18 00:01:38;;;;;;;210.90;59.87;;;;;;;;;;5074976;28;20510;-53
2023/08/18 00:04:04;;;;;;;210.30;60.20;;;;;;;;;;5075133;28;20538;-53
2023/08/18 00:06:30;;;;;;;215.13;63.57;;;;;;;;;;5075198;28;20462;-53
2023/08/18 00:08:56;;;;;;;212.63;60.97;;;;;;;;;;5075164;28;20919;-53
2023/08/18 00:11:22;;;;;;;210.63;60.03;;;;;;;;;;5074830;28;20432;-54
2023/08/18 00:13:48;;;;;;;211.27;60.97;;;;;;;;;;5075009;28;20408;-52
2023/08/18 00:16:14;;;;;;;209.87;58.37;;;;;;;;;;5075283;28;20415;-54
2023/08/18 00:18:40;;;;;;;215.17;64.80;;;;;;;;;;5075006;28;20410;-52
2023/08/18 00:21:07;;;;;;;215.40;65.40;;;;;;;;;;5074609;28;20776;-53
2023/08/18 00:23:33;;;;;;;212.93;61.23;;;;;;;;;;5074650;28;20418;-52
2023/08/18 00:25:59;;;;;;;211.50;60.27;;;;;;;;;;5074592;28;20470;-52
2023/08/18 00:28:25;;;;;;;211.87;60.07;;;;;;;;;;5074580;28;20427;-53
2023/08/18 00:30:51;;;;;;;214.17;62.30;;;;;;;;;;5074514;28;20897;-53
2023/08/18 00:33:17;;;;;;;210.50;57.83;;;;;;;;;;5074545;28;20462;-52
2023/08/18 00:35:42;;;;;;;214.13;62.10;;;;;;;;;;5074540;28;20419;-53
2023/08/18 00:38:08;;;;;;;213.17;59.97;;;;;;;;;;5074701;28;20404;-53
2023/08/18 00:40:34;;;;;;;212.30;61.10;;;;;;;;;;5074377;28;20507;-52
2023/08/18 00:43:00;;;;;;;214.27;61.80;;;;;;;;;;5074442;28;20443;-53
2023/08/18 00:45:27;;;;;;;214.67;63.33;;;;;;;;;;5074192;28;20517;-53
2023/08/18 00:47:53;;;;;;;212.57;58.83;;;;;;;;;;5074283;28;20505;-52
2023/08/18 00:50:20;;;;;;;210.70;59.00;;;;;;;;;;5073992;28;20510;-54
2023/08/18 00:52:49;;;;;;;214.70;63.40;;;;;;;;;;5080140;28;20417;-52
2023/08/18 00:55:16;;;;;;;212.43;60.83;;;;;;;;;;5074134;28;20415;-52
2023/08/18 00:57:43;;;;;;;215.77;64.07;;;;;;;;;;5074240;28;20415;-52
2023/08/18 01:00:09;;;;;;;219.67;63.27;;;;;;;;;;5074013;28;20830;-52
2023/08/18 01:02:35;;;;;;;219.13;61.90;;;;;;;;;;5073090;28;20471;-53
2023/08/18 01:05:02;;;;;;;220.17;64.60;;;;;;;;;;5073696;28;20467;-52
2023/08/18 01:07:28;;;;;;;223.50;66.93;;;;;;;;;;5073347;28;20722;-52
2023/08/18 01:09:55;;;;;;;221.73;63.83;;;;;;;;;;5073383;28;20450;-53
2023/08/18 01:12:36;;;;;;;217.90;62.50;;;;;;;;;;5073899;28;20825;-52
2023/08/18 01:15:11;;;;;;;216.60;62.60;;;;;;;;;;5073659;28;20425;-55
2023/08/18 01:17:55;;;;;;;216.03;62.17;;;;;;;;;;5074113;28;20792;-53
2023/08/18 01:20:22;;;;;;;215.67;60.47;;;;;;;;;;5073512;28;20919;-53
2023/08/18 01:23:07;;;;;;;215.13;61.67;;;;;;;;;;5073771;28;20420;-53
2023/08/18 01:25:52;;;;;;;220.20;66.60;;;;;;;;;;5073118;28;20504;-53
2023/08/18 01:28:18;;;;;;;220.67;66.70;;;;;;;;;;5073915;28;20463;-52
2023/08/18 01:30:48;;;;;;;216.60;61.53;;;;;;;;;;5073781;28;20898;-52
2023/08/18 01:33:21;;;;;;;213.13;60.60;;;;;;;;;;5074044;28;20415;-53
2023/08/18 01:35:49;;;;;;;214.83;60.70;;;;;;;;;;5073747;28;20170;-53
2023/08/18 01:38:16;;;;;;;367.60;174.47;;;;;;;;;;5073671;28;20398;-53
2023/08/18 01:40:42;;;;;;;210.93;58.10;;;;;;;;;;5073521;28;20407;-53
2023/08/18 01:43:08;;;;;;;211.90;61.03;;;;;;;;;;5073533;28;20431;-53
2023/08/18 01:45:36;;;;;;;209.53;59.57;;;;;;;;;;5073501;28;20496;-54
2023/08/18 01:48:02;;;;;;;215.90;65.07;;;;;;;;;;5073430;28;20415;-53
2023/08/18 01:50:28;;;;;;;211.43;60.33;;;;;;;;;;5073178;28;20485;-53
2023/08/18 01:53:12;;;;;;;210.50;60.97;;;;;;;;;;5073477;28;20427;-53
2023/08/18 01:58:23;;;;;;;210.40;59.40;;;;;;;;;;5068337;28;20944;-53
2023/08/18 02:00:52;;;;;;;210.47;58.40;;;;;;;;;;5072871;28;20487;-53
2023/08/18 02:06:03;;;;;;;212.57;61.37;;;;;;;;;;5072857;28;20294;-53
2023/08/18 02:08:29;;;;;;;210.23;60.77;;;;;;;;;;5072701;28;20411;-52
2023/08/18 02:11:01;;;;;;;458.57;117.07;;;;;;;;;;5072369;28;20826;-53
2023/08/18 02:13:27;;;;;;;444.75;107.32;;;;;;;;;;5072081;28;20461;-53
2023/08/18 02:15:53;;;;;;;458.27;136.33;;;;;;;;;;5072599;28;20585;-52
2023/08/18 02:18:19;;;;;;;452.02;134.65;;;;;;;;;;5072605;28;20401;-53
2023/08/18 02:23:48;;;;;;;410.63;101.38;;;;;;;;;;5071136;28;20387;-53
2023/08/18 02:26:14;;;;;;;243.53;66.67;;;;;;;;;;5072842;28;20176;-54
2023/08/18 02:28:40;;;;;;;213.43;59.70;;;;;;;;;;5072351;28;20487;-54
2023/08/18 02:31:07;;;;;;;213.60;60.30;;;;;;;;;;5072153;28;20408;-54
2023/08/18 02:33:34;;;;;;;218.47;64.10;;;;;;;;;;5072164;28;20411;-53
2023/08/18 02:36:00;;;;;;;218.83;64.70;;;;;;;;;;5072251;28;20919;-53
2023/08/18 02:38:26;;;;;;;218.43;64.17;;;;;;;;;;5072134;28;20418;-53
2023/08/18 02:40:52;;;;;;;220.07;67.87;;;;;;;;;;5072159;28;20414;-53
2023/08/18 02:43:18;;;;;;;216.40;62.50;;;;;;;;;;5072114;28;20443;-52
2023/08/18 02:45:44;;;;;;;215.03;61.37;;;;;;;;;;5072053;28;20455;-53
2023/08/18 02:48:14;;;;;;;214.37;61.53;;;;;;;;;;5072136;28;20914;-55
2023/08/18 02:50:40;;;;;;;215.73;62.00;;;;;;;;;;5063565;28;21115;-53
2023/08/18 02:53:25;;;;;;;219.07;68.50;;;;;;;;;;5072081;28;20518;-53
2023/08/18 02:55:52;;;;;;;215.47;61.43;;;;;;;;;;5065231;28;20409;-54
2023/08/18 02:58:17;;;;;;;217.07;61.47;;;;;;;;;;5071812;28;20412;-52
2023/08/18 03:00:43;;;;;;;213.47;59.73;;;;;;;;;;5071736;28;20408;-52
2023/08/18 03:03:09;;;;;;;215.87;61.67;;;;;;;;;;5071851;28;20480;-53
2023/08/18 03:05:37;;;;;;;218.03;64.53;;;;;;;;;;5071733;28;20562;-53
2023/08/18 03:08:03;;;;;;;216.53;63.33;;;;;;;;;;5071786;28;20411;-53
2023/08/18 03:10:29;;;;;;;216.87;62.83;;;;;;;;;;5071566;28;20417;-52
2023/08/18 03:12:55;;;;;;;214.47;61.23;;;;;;;;;;5071612;28;20431;-52
2023/08/18 03:15:21;;;;;;;217.00;62.00;;;;;;;;;;5071925;28;20416;-52
2023/08/18 03:17:47;;;;;;;212.80;58.30;;;;;;;;;;5071618;28;20410;-54
2023/08/18 03:20:13;;;;;;;216.17;63.73;;;;;;;;;;5071493;28;20418;-53
2023/08/18 03:22:39;;;;;;;215.80;62.20;;;;;;;;;;5071584;28;20431;-54
2023/08/18 03:25:05;;;;;;;214.07;60.53;;;;;;;;;;5070574;28;20458;-52
2023/08/18 03:27:31;;;;;;;215.77;62.73;;;;;;;;;;5071264;28;20411;-54
2023/08/18 03:29:58;;;;;;;214.33;61.03;;;;;;;;;;5071387;28;20419;-53
2023/08/18 03:32:24;;;;;;;216.07;61.50;;;;;;;;;;5071486;28;20440;-54
2023/08/18 03:34:50;;;;;;;213.50;60.07;;;;;;;;;;5071593;28;20491;-54
2023/08/18 03:37:16;;;;;;;213.37;60.30;;;;;;;;;;5071272;28;20447;-54
2023/08/18 03:39:42;;;;;;;219.43;65.70;;;;;;;;;;5071258;28;20502;-52
2023/08/18 03:42:08;;;;;;;214.20;61.07;;;;;;;;;;5071386;28;20446;-53
2023/08/18 03:44:34;;;;;;;218.10;65.93;;;;;;;;;;5071404;28;21031;-52
2023/08/18 03:47:00;;;;;;;210.57;57.47;;;;;;;;;;5071425;28;20910;-52
2023/08/18 03:49:26;;;;;;;215.63;62.43;;;;;;;;;;5071363;28;20412;-55
2023/08/18 03:51:52;;;;;;;214.43;61.87;;;;;;;;;;5077096;28;20542;-52
2023/08/18 03:54:18;;;;;;;216.40;61.93;;;;;;;;;;5071125;28;20887;-53
2023/08/18 03:56:44;;;;;;;215.80;63.20;;;;;;;;;;5071397;28;20401;-53
2023/08/18 03:59:10;;;;;;;216.50;61.90;;;;;;;;;;5071583;28;20243;-55
2023/08/18 04:01:36;;;;;;;216.57;62.27;;;;;;;;;;5071318;28;20515;-53
2023/08/18 04:04:01;;;;;;;214.57;60.10;;;;;;;;;;5071417;28;20409;-53
2023/08/18 04:06:27;;;;;;;215.60;62.47;;;;;;;;;;5071492;28;20389;-53
2023/08/18 04:09:07;;;;;;;216.80;61.50;;;;;;;;;;5071359;28;20403;-54
2023/08/18 04:11:34;;;;;;;214.90;61.97;;;;;;;;;;5071185;28;20417;-53
2023/08/18 04:14:00;;;;;;;215.83;63.63;;;;;;;;;;5071489;28;20406;-52
2023/08/18 04:16:26;;;;;;;213.23;60.72;;;;;;;;;;5071434;28;20392;-53
2023/08/18 04:18:52;;;;;;;214.40;61.60;;;;;;;;;;5071389;28;20172;-54
2023/08/18 04:21:18;;;;;;;217.02;62.42;;;;;;;;;;5070814;28;20421;-54
2023/08/18 04:23:44;;;;;;;215.13;64.40;;;;;;;;;;5071234;28;20179;-55
2023/08/18 04:26:12;;;;;;;216.53;66.70;;;;;;;;;;5071191;28;20454;-53
2023/08/18 04:28:38;;;;;;;210.90;60.07;;;;;;;;;;5071105;28;20453;-52
2023/08/18 04:31:04;;;;;;;214.97;63.87;;;;;;;;;;5070934;28;20403;-52
2023/08/18 04:33:30;;;;;;;216.00;65.87;;;;;;;;;;5071089;28;20464;-54
2023/08/18 04:35:57;;;;;;;212.17;62.30;;;;;;;;;;5071645;28;20403;-53
2023/08/18 04:38:23;;;;;;;214.43;63.87;;;;;;;;;;5074883;28;20407;-54
2023/08/18 04:40:58;;;;;;;215.47;65.93;;;;;;;;;;5074777;28;20771;-53
2023/08/18 04:43:24;;;;;;;212.70;60.77;;;;;;;;;;5074646;28;20410;-55
2023/08/18 04:45:51;;;;;;;213.60;62.77;;;;;;;;;;5074496;28;20545;-53
2023/08/18 04:48:17;;;;;;;215.10;65.07;;;;;;;;;;5074626;28;20430;-54
2023/08/18 04:50:43;;;;;;;213.40;61.30;;;;;;;;;;5074316;28;20443;-55
2023/08/18 04:53:09;;;;;;;212.90;63.23;;;;;;;;;;5074740;28;20781;-54
2023/08/18 04:55:35;;;;;;;212.57;61.57;;;;;;;;;;5074362;28;20760;-54
2023/08/18 04:58:01;;;;;;;215.17;62.77;;;;;;;;;;5074511;28;20439;-54
2023/08/18 05:00:27;;;;;;;215.73;65.80;;;;;;;;;;5074119;28;20406;-55
2023/08/18 05:02:53;;;;;;;211.77;60.67;;;;;;;;;;5074322;28;20428;-54
2023/08/18 05:05:20;;;;;;;213.03;62.90;;;;;;;;;;5074205;28;20487;-53
2023/08/18 05:07:46;;;;;;;210.30;59.60;;;;;;;;;;5074392;28;20403;-53
2023/08/18 05:10:12;;;;;;;214.63;64.30;;;;;;;;;;5074087;28;20418;-53
2023/08/18 05:12:38;;;;;;;214.17;62.67;;;;;;;;;;5074249;28;20450;-53
2023/08/18 05:15:04;;;;;;;211.77;60.80;;;;;;;;;;5074067;28;20446;-53
2023/08/18 05:17:30;;;;;;;216.43;66.90;;;;;;;;;;5074677;28;20401;-56
2023/08/18 05:19:56;;;;;;;218.80;66.50;;;;;;;;;;5073813;28;20893;-56
2023/08/18 05:22:22;;;;;;;212.50;63.23;;;;;;;;;;5073945;28;20427;-56
2023/08/18 05:24:52;;;;;;;212.03;60.67;;;;;;;;;;5073920;28;20474;-56
2023/08/18 05:27:18;;;;;;;218.77;65.80;;;;;;;;;;5070844;28;20429;-56
2023/08/18 05:29:44;;;;;;;214.40;62.60;;;;;;;;;;5079140;28;20870;-55
2023/08/18 05:32:10;;;;;;;210.43;59.37;;;;;;;;;;5078301;28;20760;-56
2023/08/18 05:34:36;;;;;;;217.57;69.23;;;;;;;;;;5072788;28;20416;-57
2023/08/18 05:37:02;;;;;;;214.60;64.30;;;;;;;;;;5073407;28;20493;-56
2023/08/18 05:39:28;;;;;;;215.77;65.00;;;;;;;;;;5073451;28;20415;-56
2023/08/18 05:41:54;;;;;;;218.00;68.20;;;;;;;;;;5071973;28;20572;-56
2023/08/18 05:44:20;;;;;;;215.47;65.77;;;;;;;;;;5073364;28;21112;-56
2023/08/18 05:46:46;;;;;;;212.10;61.87;;;;;;;;;;5073314;28;20825;-56
2023/08/18 05:49:12;;;;;;;212.47;60.77;;;;;;;;;;5072408;28;20775;-56
2023/08/18 05:51:42;;;;;;;211.20;61.80;;;;;;;;;;5073007;28;20439;-56
2023/08/18 05:54:09;;;;;;;210.30;59.80;;;;;;;;;;5073097;28;20461;-56
2023/08/18 05:56:34;;;;;;;212.67;62.83;;;;;;;;;;5073065;28;20407;-56
2023/08/18 05:59:00;;;;;;;211.77;61.40;;;;;;;;;;5073231;28;20461;-56
2023/08/18 06:01:27;;;;;;;213.93;63.80;;;;;;;;;;5072699;28;20439;-55
2023/08/18 06:03:53;;;;;;;213.17;62.90;;;;;;;;;;5073192;28;20425;-57
2023/08/18 06:06:19;;;;;;;213.57;62.43;;;;;;;;;;5072832;28;20454;-55
2023/08/18 06:08:45;;;;;;;215.07;63.63;;;;;;;;;;5072134;28;20404;-55
2023/08/18 06:11:11;;;;;;;214.00;62.87;;;;;;;;;;5072195;28;20414;-55
2023/08/18 06:13:37;;;;;;;210.57;59.37;;;;;;;;;;5072266;28;20432;-54
2023/08/18 06:16:04;;;;;;;210.27;59.03;;;;;;;;;;5072175;28;20440;-56
2023/08/18 06:18:30;;;;;;;212.60;60.87;;;;;;;;;;5070996;28;20420;-55
2023/08/18 06:20:56;;;;;;;214.70;66.60;;;;;;;;;;5077156;28;20925;-54
2023/08/18 06:23:22;;;;;;;211.43;59.77;;;;;;;;;;5074403;28;20439;-53
2023/08/18 06:25:48;;;;;;;211.63;61.10;;;;;;;;;;5069845;28;20469;-56
2023/08/18 06:28:14;;;;;;;210.17;59.93;;;;;;;;;;5069829;28;20420;-56
2023/08/18 06:30:40;;;;;;;214.83;65.57;;;;;;;;;;5070425;28;20414;-56
2023/08/18 06:33:06;;;;;;;212.83;61.53;;;;;;;;;;5071827;28;20453;-53
2023/08/18 06:35:32;;;;;;;212.87;63.20;;;;;;;;;;5071714;28;20415;-54
2023/08/18 06:37:58;;;;;;;212.43;62.27;;;;;;;;;;5071715;28;20416;-53
2023/08/18 06:40:25;;;;;;;212.93;61.43;;;;;;;;;;5071707;28;20908;-53
2023/08/18 06:42:51;;;;;;;210.97;61.47;;;;;;;;;;5072135;28;20439;-55
2023/08/18 06:45:17;;;;;;;213.33;62.33;;;;;;;;;;5070706;28;20477;-54
2023/08/18 06:47:43;;;;;;;215.23;64.65;;;;;;;;;;5069733;28;20417;-54
2023/08/18 06:50:09;;;;;;;216.27;64.03;;;;;;;;;;5070101;28;20180;-54
2023/08/18 06:52:35;;;;;;;214.53;63.97;;;;;;;;;;5070195;28;20423;-56
2023/08/18 06:55:03;;;;;;;214.27;63.80;;;;;;;;;;5070935;28;20772;-56
2023/08/18 06:57:29;;;;;;;210.87;61.07;;;;;;;;;;5071811;28;20416;-55
2023/08/18 06:59:55;;;;;;;212.77;63.00;;;;;;;;;;5071432;28;21067;-55
2023/08/18 07:02:22;;;;;;;211.93;62.43;;;;;;;;;;5071882;28;20521;-56
2023/08/18 07:04:49;;;;;;;213.87;64.07;;;;;;;;;;5071907;28;20508;-56
2023/08/18 07:07:15;;;;;;;211.77;62.97;;;;;;;;;;5071752;28;20408;-56
2023/08/18 07:09:41;;;;;;;211.17;62.33;;;;;;;;;;5071624;28;20504;-56
2023/08/18 07:12:07;;;;;;;211.50;61.90;;;;;;;;;;5071723;28;20468;-56
2023/08/18 07:14:33;;;;;;;211.87;62.00;;;;;;;;;;5071677;28;20408;-56
2023/08/18 07:16:59;;;;;;;211.77;63.57;;;;;;;;;;5071644;28;20426;-54
2023/08/18 07:19:25;;;;;;;210.33;60.10;;;;;;;;;;5071693;28;20591;-56
2023/08/18 07:21:51;;;;;;;213.97;66.17;;;;;;;;;;5071317;28;20482;-56
2023/08/18 07:24:17;;;;;;;212.13;64.33;;;;;;;;;;5071682;28;20420;-56
2023/08/18 07:26:43;;;;;;;208.60;58.90;;;;;;;;;;5071820;28;20439;-56
2023/08/18 07:29:09;;;;;;;209.73;60.50;;;;;;;;;;5071726;28;20416;-56
2023/08/18 07:31:35;;;;;;;210.77;61.67;;;;;;;;;;5071241;28;20522;-56
2023/08/18 07:34:01;;;;;;;213.03;63.43;;;;;;;;;;5071583;28;20411;-56
2023/08/18 07:36:27;;;;;;;210.27;60.17;;;;;;;;;;5071294;28;20423;-56
2023/08/18 07:38:53;;;;;;;254.83;74.47;;;;;;;;;;5067445;28;20423;-56
2023/08/18 07:41:19;;;;;;;326.57;96.17;;;;;;;;;;5070986;28;20427;-55
2023/08/18 07:43:45;;;;;;;225.00;66.57;;;;;;;;;;5069658;28;20411;-55
2023/08/18 07:46:11;;;;;;;214.10;64.67;;;;;;;;;;5069289;28;20455;-55
2023/08/18 07:48:38;;;;;;;212.73;62.77;;;;;;;;;;5071003;28;20402;-56
2023/08/18 07:51:04;;;;;;;213.40;62.83;;;;;;;;;;5074837;28;20930;-55
2023/08/18 07:53:30;;;;;;;210.83;60.97;;;;;;;;;;5072370;28;20423;-56
2023/08/18 07:55:57;;;;;;;210.37;61.33;;;;;;;;;;5071570;28;20422;-56
2023/08/18 07:58:23;;;;;;;212.87;64.77;;;;;;;;;;5071278;28;20408;-56
2023/08/18 08:00:49;;;;;;;211.47;64.37;;;;;;;;;;5071085;28;20482;-54
2023/08/18 08:03:15;;;;;;;212.00;63.00;;;;;;;;;;5071163;28;20481;-55
2023/08/18 08:05:41;;;;;;;210.13;61.60;;;;;;;;;;5070938;28;20474;-55
2023/08/18 08:08:07;;;;;;;209.90;59.97;;;;;;;;;;5071293;28;20412;-56
2023/08/18 08:10:33;;;;;;;210.77;60.73;;;;;;;;;;5070212;28;20467;-56
2023/08/18 08:12:59;;;;;;;212.20;61.10;;;;;;;;;;5075240;28;20435;-56
2023/08/18 08:15:25;;;;;;;211.87;62.90;;;;;;;;;;5074904;28;20971;-56
2023/08/18 08:17:51;;;;;;;212.10;64.53;;;;;;;;;;5074961;28;20451;-56
2023/08/18 08:20:17;;;;;;;210.90;61.47;;;;;;;;;;5074634;28;20450;-56
2023/08/18 08:22:45;;;;;;;214.60;65.97;;;;;;;;;;5074862;28;20432;-56
2023/08/18 08:25:12;;;;;;;213.03;63.83;;;;;;;;;;5075351;28;20455;-55
2023/08/18 08:27:38;;;;;;;212.73;63.83;;;;;;;;;;5074850;28;20405;-57
2023/08/18 08:30:05;;;;;;;213.30;64.67;;;;;;;;;;5074643;28;20414;-56
2023/08/18 08:32:31;;;;;;;216.80;69.43;;;;;;;;;;5074491;28;20454;-56
2023/08/18 08:34:57;;;;;;;214.07;64.83;;;;;;;;;;5074786;28;20446;-56
2023/08/18 08:37:23;;;;;;;211.20;62.20;;;;;;;;;;5074733;28;20421;-56
2023/08/18 08:39:49;;;;;;;215.13;66.23;;;;;;;;;;5074428;28;20490;-56
2023/08/18 08:42:15;;;;;;;210.67;62.20;;;;;;;;;;5074492;28;20433;-56
2023/08/18 08:44:42;;;;;;;213.00;63.97;;;;;;;;;;5074430;28;21093;-54
2023/08/18 08:47:08;;;;;;;214.57;65.30;;;;;;;;;;5074244;28;20403;-54
2023/08/18 08:49:35;;;;;;;211.07;62.37;;;;;;;;;;5067483;28;20424;-56
2023/08/18 08:52:03;;;;;;;214.97;68.40;;;;;;;;;;5069383;28;20455;-56
2023/08/18 08:54:30;;;;;;;210.67;63.23;;;;;;;;;;5074464;28;20424;-56
2023/08/18 08:56:57;;;;;;;210.23;61.60;;;;;;;;;;5074629;28;20407;-56
2023/08/18 08:59:23;;;;;;;215.97;66.00;;;;;;;;;;5071830;28;20554;-55
2023/08/18 09:01:49;;;;;;;211.20;64.47;;;;;;;;;;5062145;28;20889;-56
2023/08/18 09:04:16;;;;;;;208.97;61.73;;;;;;;;;;5063837;28;20417;-55
2023/08/18 09:06:42;;;;;;;212.87;65.53;;;;;;;;;;5066610;28;20779;-54
2023/08/18 09:09:08;;;;;;;214.27;66.90;;;;;;;;;;5071743;28;20448;-53
2023/08/18 09:11:45;;;;;;;209.40;62.20;;;;;;;;;;5065938;28;20901;-53
2023/08/18 09:14:11;;;;;;;211.40;64.50;;;;;;;;;;5068630;28;20489;-51
2023/08/18 09:16:37;;;;;;;212.10;65.70;;;;;;;;;;5072352;28;21004;-51
2023/08/18 09:19:03;;;;;;;211.63;63.03;;;;;;;;;;5074307;28;20415;-51
2023/08/18 09:21:29;;;;;;;214.80;68.97;;;;;;;;;;5065892;28;20511;-51
2023/08/18 09:23:56;;;;;;;210.40;65.53;;;;;;;;;;5067473;28;20424;-52
2023/08/18 09:26:22;;;;;;;215.27;69.20;;;;;;;;;;5064160;28;20459;-56
2023/08/18 09:28:48;;;;;;;214.97;71.20;;;;;;;;;;5065910;28;20405;-56
2023/08/18 09:31:14;;;;;;;214.57;68.23;;;;;;;;;;5058415;28;20558;-55
2023/08/18 09:33:40;;;;;;;214.67;67.43;;;;;;;;;;5067879;28;20416;-52
2023/08/18 09:36:06;;;;;;;213.97;68.40;;;;;;;;;;5072180;28;20935;-52
2023/08/18 09:38:38;;;;;;;215.70;73.10;;;;;;;;;;5070726;28;20447;-52
2023/08/18 09:41:05;;;;;;;217.83;71.83;;;;;;;;;;5062563;28;20424;-52
2023/08/18 09:43:31;;;;;;;214.33;70.60;;;;;;;;;;5064039;28;20512;-53
2023/08/18 09:45:57;;;;;;;210.63;65.87;;;;;;;;;;5073457;28;20460;-54
2023/08/18 09:48:26;;;;;;;214.93;70.53;;;;;;;;;;5070995;28;20426;-52
2023/08/18 09:50:53;;;;;;;214.10;71.50;;;;;;;;;;5070938;28;20524;-53
2023/08/18 09:53:21;;;;;;;217.77;73.77;;;;;;;;;;5069612;28;20441;-52
2023/08/18 09:55:50;;;;;;;209.20;65.73;;;;;;;;;;5069425;28;20419;-52
2023/08/18 09:58:33;;;;;;;215.10;67.83;;;;;;;;;;5070331;28;20432;-53
2023/08/18 10:00:59;;;;;;;217.47;70.97;;;;;;;;;;5071076;28;20408;-52
2023/08/18 10:03:26;;;;;;;215.07;69.30;;;;;;;;;;5061841;28;20967;-53
2023/08/18 10:05:53;;;;;;;217.07;71.83;;;;;;;;;;5071304;28;21023;-53
2023/08/18 10:08:20;;;;;;;214.23;71.97;;;;;;;;;;5070897;28;20401;-53
2023/08/18 10:10:46;;;;;;;209.03;67.87;;;;;;;;;;5070456;28;20424;-53
2023/08/18 10:13:14;;;;;;;221.90;85.93;;;;;;;;;;5062390;28;20613;-53
2023/08/18 10:15:40;;;;;;;268.77;113.77;;;;;;;;;;5067740;28;20424;-52
2023/08/18 10:18:09;;;;;;;219.77;79.63;;;;;;;;;;5078012;28;20828;-53
2023/08/18 10:20:35;;;;;;;218.77;74.23;;;;;;;;;;5092844;28;20890;-54
2023/08/18 10:23:05;;;;;;;221.63;78.93;;;;;;;;;;5092965;28;20416;-54
2023/08/18 10:25:35;;;;;;;220.53;75.60;;;;;;;;;;5092932;28;20495;-53
2023/08/18 10:28:05;;;;;;;226.90;85.37;;;;;;;;;;5092809;28;20942;-54
2023/08/18 10:30:31;;;;;;;224.67;79.77;;;;;;;;;;5091955;28;20407;-53
2023/08/18 10:33:03;;;;;;;225.30;84.93;;;;;;;;;;5071055;28;20448;-52
2023/08/18 10:35:29;;;;;;;225.10;86.13;;;;;;;;;;5066109;28;20817;-53
2023/08/18 10:38:05;;;;;;;222.63;83.27;;;;;;;;;;5067716;28;20474;-55
2023/08/18 10:40:35;;;;;;;224.00;83.40;;;;;;;;;;5071000;28;20408;-56
2023/08/18 10:43:07;;;;;;;223.10;81.93;;;;;;;;;;5072334;28;20430;-55
2023/08/18 10:45:33;;;;;;;224.30;83.00;;;;;;;;;;5072088;28;20809;-56
2023/08/18 10:48:00;;;;;;;224.27;81.13;;;;;;;;;;5072237;28;20455;-55
2023/08/18 10:50:29;;;;;;;221.83;80.83;;;;;;;;;;5071986;28;20521;-56
2023/08/18 10:52:56;;;;;;;218.93;78.87;;;;;;;;;;5092422;28;20439;-55
2023/08/18 10:55:25;;;;;;;231.47;93.67;;;;;;;;;;5090641;28;20405;-54
2023/08/18 10:57:51;;;;;;;222.67;85.00;;;;;;;;;;5060987;28;20456;-56
2023/08/18 11:00:18;;;;;;;223.13;82.00;;;;;;;;;;5072449;28;20484;-51
2023/08/18 11:02:51;;;;;;;222.23;81.17;;;;;;;;;;5072128;28;20470;-51
2023/08/18 11:05:22;;;;;;;220.27;81.40;;;;;;;;;;5072057;28;20448;-51
2023/08/18 11:07:48;;;;;;;220.27;82.57;;;;;;;;;;5072062;28;20428;-51
2023/08/18 11:10:18;;;;;;;220.70;83.67;;;;;;;;;;5071939;28;20480;-53
2023/08/18 11:12:44;;;;;;;222.50;91.13;;;;;;;;;;5071813;28;20499;-51
2023/08/18 11:15:10;;;;;;;219.37;83.37;;;;;;;;;;5071786;28;20408;-51
2023/08/18 11:17:37;;;;;;;221.63;90.00;;;;;;;;;;5071921;28;20401;-51
2023/08/18 11:20:07;;;;;;;217.60;81.90;;;;;;;;;;5071802;28;20411;-51
2023/08/18 11:22:34;;;;;;;218.70;83.90;;;;;;;;;;5067890;28;20448;-53
2023/08/18 11:25:00;;;;;;;218.10;84.27;;;;;;;;;;5061650;28;20978;-52
2023/08/18 11:27:26;;;;;;;217.27;82.57;;;;;;;;;;5066063;28;20428;-53
2023/08/18 11:29:53;;;;;;;222.77;87.70;;;;;;;;;;5070319;28;20435;-53
2023/08/18 11:32:19;;;;;;;223.30;90.33;;;;;;;;;;5059753;28;20535;-53
2023/08/18 11:34:46;;;;;;;218.73;84.07;;;;;;;;;;5063986;28;20506;-53
2023/08/18 11:37:12;;;;;;;221.27;89.00;;;;;;;;;;5064168;28;20416;-53
2023/08/18 11:39:38;;;;;;;222.00;87.83;;;;;;;;;;5067860;28;20990;-53
2023/08/18 11:42:04;;;;;;;219.80;90.43;;;;;;;;;;5064193;28;20438;-53
2023/08/18 11:44:33;;;;;;;222.20;88.53;;;;;;;;;;5071475;28;20502;-52
2023/08/18 11:47:00;;;;;;;218.80;87.17;;;;;;;;;;5074536;28;21036;-51
2023/08/18 11:49:26;;;;;;;330.80;188.00;;;;;;;;;;5075741;28;20469;-54
2023/08/18 11:51:58;;;;;;;213.07;84.47;;;;;;;;;;5075263;28;20440;-56
2023/08/18 11:54:25;;;;;;;214.90;87.23;;;;;;;;;;5074995;28;20442;-51
2023/08/18 11:56:52;;;;;;;213.70;86.03;;;;;;;;;;5075446;28;20396;-51
2023/08/18 11:59:19;;;;;;;213.27;84.67;;;;;;;;;;5075602;28;20396;-52
2023/08/18 12:01:44;;;;;;;216.17;88.47;;;;;;;;;;5075605;28;20460;-51
2023/08/18 12:04:11;;;;;;;213.53;85.90;;;;;;;;;;5074449;28;20444;-50
2023/08/18 12:06:37;;;;;;;216.07;88.33;;;;;;;;;;5074344;28;20982;-51
2023/08/18 12:09:07;;;;;;;216.07;90.13;;;;;;;;;;5074229;28;20411;-52
2023/08/18 12:11:34;;;;;;;218.47;92.67;;;;;;;;;;5074441;28;20831;-52
2023/08/18 12:14:03;;;;;;;214.57;91.07;;;;;;;;;;5075127;28;20407;-52
2023/08/18 12:16:29;;;;;;;217.23;97.87;;;;;;;;;;5073770;28;20405;-51
2023/08/18 12:18:55;;;;;;;212.50;88.60;;;;;;;;;;5075302;28;20411;-51
2023/08/18 12:21:21;;;;;;;215.03;92.30;;;;;;;;;;5074689;28;20465;-51
2023/08/18 12:23:47;;;;;;;217.10;95.20;;;;;;;;;;5074935;28;20396;-53
2023/08/18 12:26:15;;;;;;;213.70;91.40;;;;;;;;;;5074949;28;20459;-50
2023/08/18 12:28:41;;;;;;;216.10;92.47;;;;;;;;;;5075144;28;20397;-51
2023/08/18 12:31:07;;;;;;;215.73;93.10;;;;;;;;;;5074805;28;20407;-51
2023/08/18 12:33:33;;;;;;;217.30;91.80;;;;;;;;;;5074894;28;20400;-51
2023/08/18 12:35:59;;;;;;;212.70;92.37;;;;;;;;;;5069317;28;20442;-55
2023/08/18 12:38:25;;;;;;;215.13;94.00;;;;;;;;;;5072162;28;20425;-55
2023/08/18 12:40:51;;;;;;;215.17;94.83;;;;;;;;;;5069340;28;20419;-54
2023/08/18 12:43:17;;;;;;;214.80;96.03;;;;;;;;;;5063930;28;20444;-53
2023/08/18 12:45:43;;;;;;;213.73;94.37;;;;;;;;;;5074358;28;20990;-51
2023/08/18 12:48:09;;;;;;;215.67;96.13;;;;;;;;;;5075066;28;20865;-51
2023/08/18 12:50:34;;;;;;;215.33;94.03;;;;;;;;;;5074284;28;20416;-51
2023/08/18 12:53:00;;;;;;;216.30;101.23;;;;;;;;;;5068397;28;20437;-53
2023/08/18 12:55:26;;;;;;;214.20;95.53;;;;;;;;;;5063168;28;20495;-52
2023/08/18 12:57:52;;;;;;;214.43;96.60;;;;;;;;;;5053976;28;20534;-51
2023/08/18 13:00:18;;;;;;;215.13;96.20;;;;;;;;;;5054255;28;20397;-53
2023/08/18 13:02:44;;;;;;;217.10;97.83;;;;;;;;;;5054020;28;20433;-55
2023/08/18 13:05:10;;;;;;;225.73;112.17;;;;;;;;;;5052455;28;20599;-56
2023/08/18 13:07:36;;;;;;;221.13;103.93;;;;;;;;;;5052397;28;20394;-54
2023/08/18 13:10:02;;;;;;;216.40;98.77;;;;;;;;;;5053156;28;20397;-54
2023/08/18 13:12:28;;;;;;;217.83;103.73;;;;;;;;;;5052823;28;20424;-56
2023/08/18 13:14:54;;;;;;;214.73;94.57;;;;;;;;;;5054115;28;20405;-55
2023/08/18 13:17:20;;;;;;;216.67;101.87;;;;;;;;;;5053963;28;20463;-55
2023/08/18 13:19:46;;;;;;;219.77;102.53;;;;;;;;;;5054363;28;20412;-55
2023/08/18 13:22:12;;;;;;;217.50;102.73;;;;;;;;;;5053923;28;20457;-55
2023/08/18 13:24:38;;;;;;;214.83;98.93;;;;;;;;;;5053935;28;20453;-55
2023/08/18 13:27:05;;;;;;;214.17;97.63;;;;;;;;;;5054017;28;20429;-54
2023/08/18 13:29:31;;;;;;;219.93;107.50;;;;;;;;;;5054118;28;20476;-55
2023/08/18 13:31:57;;;;;;;222.40;115.27;;;;;;;;;;5053599;28;20520;-56
2023/08/18 13:34:23;;;;;;;216.27;101.17;;;;;;;;;;5053856;28;20390;-55
2023/08/18 13:36:49;;;;;;;246.97;130.77;;;;;;;;;;5054203;28;20397;-55
2023/08/18 13:39:15;;;;;;;216.13;100.73;;;;;;;;;;5073642;28;20479;-55
2023/08/18 13:41:41;;;;;;;225.17;116.77;;;;;;;;;;5073454;28;20416;-55
2023/08/18 13:44:07;;;;;;;216.87;104.57;;;;;;;;;;5073948;28;20412;-55
2023/08/18 13:46:33;;;;;;;217.97;104.90;;;;;;;;;;5073698;28;20456;-55
2023/08/18 13:48:59;;;;;;;216.67;104.23;;;;;;;;;;5073493;28;20428;-56
2023/08/18 13:51:25;;;;;;;218.03;106.53;;;;;;;;;;5080168;28;20535;-55
2023/08/18 13:53:51;;;;;;;217.20;104.73;;;;;;;;;;5093602;28;20395;-55
2023/08/18 13:56:17;;;;;;;221.20;115.47;;;;;;;;;;5093611;28;20895;-54
2023/08/18 13:58:43;;;;;;;214.37;102.10;;;;;;;;;;5093644;28;20408;-56
2023/08/18 14:01:09;;;;;;;217.83;108.17;;;;;;;;;;5093275;28;20879;-56
2023/08/18 14:03:35;;;;;;;215.97;102.50;;;;;;;;;;5093993;28;20863;-55
2023/08/18 14:06:01;;;;;;;218.77;106.80;;;;;;;;;;5093245;28;20497;-55
2023/08/18 14:08:27;;;;;;;218.30;110.07;;;;;;;;;;5092629;28;20396;-55
2023/08/18 14:10:53;;;;;;;217.47;105.83;;;;;;;;;;5093056;28;20413;-55